This is the latest recevied weather packets stored in our database for station/object SP9UVG-13. If no packets are shown the sender has not sent any weather packets the latest 10 day(s).
| Time | Temp. | Humidity | Pressure | Rain* | Wind** | Luminosity | Snow |
|---|---|---|---|---|---|---|---|
| 1787743948 | 28.33° C | 39% | 1005.7 hPa | 0 mm | - | - | - |
| 1787743408 | 28.89° C | 39% | 1005.7 hPa | 0 mm | - | - | - |
| 1787742867 | 28.89° C | 39% | 1005.8 hPa | 0 mm | - | - | - |
| 1787742327 | 28.89° C | 40% | 1005.9 hPa | 0 mm | - | - | - |
| 1787741786 | 28.33° C | 38% | 1005.9 hPa | 0 mm | - | - | - |
| 1787741246 | 27.78° C | 41% | 1006 hPa | 0 mm | - | - | - |
| 1787740705 | 27.22° C | 40% | 1005.9 hPa | 0 mm | - | - | - |
| 1787740165 | 27.22° C | 42% | 1005.9 hPa | 0 mm | - | - | - |
| 1787739624 | 25° C | 46% | 1005.9 hPa | 0 mm | - | - | - |
| 1787739084 | 23.33° C | 50% | 1006 hPa | 0 mm | - | - | - |
| 1787738543 | 22.78° C | 53% | 1006.1 hPa | 0 mm | - | - | - |
| 1787738003 | 23.33° C | 53% | 1006.1 hPa | 0 mm | - | - | - |
| 1787737580 | 21.67° C | 56% | 1006.1 hPa | 0 mm | - | - | - |
| 1787737462 | 21.67° C | 56% | 1006.1 hPa | 0 mm | - | - | - |
| 1787736922 | 21.67° C | 55% | 1006.1 hPa | 0 mm | - | - | - |
| 1787736381 | 21.67° C | 58% | 1006.2 hPa | 0 mm | - | - | - |
| 1787735840 | 21.67° C | 58% | 1006.3 hPa | 0 mm | - | - | - |
| 1787735300 | 21.67° C | 58% | 1006.4 hPa | 0 mm | - | - | - |
| 1787734760 | 21.11° C | 61% | 1006.2 hPa | 0 mm | - | - | - |
| 1787734219 | 20° C | 61% | 1006.1 hPa | 0 mm | - | - | - |
| 1787733678 | 20° C | 62% | 1006.2 hPa | 0 mm | - | - | - |
| 1787733138 | 20° C | 61% | 1006.1 hPa | 0 mm | - | - | - |
| 1787732597 | 20.56° C | 60% | 1006 hPa | 0 mm | - | - | - |
| 1787732057 | 21.11° C | 61% | 1006 hPa | 0 mm | - | - | - |
| 1787731516 | 21.67° C | 63% | 1006 hPa | 0 mm | - | - | - |
* Rain latest hour (hover to see other rain measurements)
** Current wind speed in m/s (hover to see current wind gust speed)